sensor_id;sensor_type;location;lat;lon;timestamp;P1;durP1;ratioP1;P2;durP2;ratioP2
12263;SDS011;6194;49.010;8.414;2023-03-04T00:01:08;27.80;;;19.13;;
12263;SDS011;6194;49.010;8.414;2023-03-04T00:03:33;27.70;;;19.10;;
12263;SDS011;6194;49.010;8.414;2023-03-04T00:06:01;28.97;;;20.17;;
12263;SDS011;6194;49.010;8.414;2023-03-04T00:08:26;30.57;;;20.83;;
12263;SDS011;6194;49.010;8.414;2023-03-04T00:10:52;31.50;;;21.90;;
12263;SDS011;6194;49.010;8.414;2023-03-04T00:13:18;31.40;;;21.53;;
12263;SDS011;6194;49.010;8.414;2023-03-04T00:15:45;32.87;;;21.93;;
12263;SDS011;6194;49.010;8.414;2023-03-04T00:18:12;36.37;;;25.10;;
12263;SDS011;6194;49.010;8.414;2023-03-04T00:20:37;34.53;;;22.70;;
12263;SDS011;6194;49.010;8.414;2023-03-04T00:23:03;39.00;;;24.17;;
12263;SDS011;6194;49.010;8.414;2023-03-04T00:25:28;36.43;;;22.77;;
12263;SDS011;6194;49.010;8.414;2023-03-04T00:27:54;40.00;;;22.67;;
12263;SDS011;6194;49.010;8.414;2023-03-04T00:30:20;40.77;;;26.50;;
12263;SDS011;6194;49.010;8.414;2023-03-04T00:32:45;41.47;;;26.50;;
12263;SDS011;6194;49.010;8.414;2023-03-04T00:35:11;40.87;;;25.90;;
12263;SDS011;6194;49.010;8.414;2023-03-04T00:37:36;39.50;;;24.57;;
12263;SDS011;6194;49.010;8.414;2023-03-04T00:40:02;41.63;;;24.07;;
12263;SDS011;6194;49.010;8.414;2023-03-04T00:42:28;32.97;;;20.90;;
12263;SDS011;6194;49.010;8.414;2023-03-04T00:44:53;42.60;;;26.60;;
12263;SDS011;6194;49.010;8.414;2023-03-04T00:47:19;39.43;;;24.37;;
12263;SDS011;6194;49.010;8.414;2023-03-04T00:49:45;45.80;;;27.80;;
12263;SDS011;6194;49.010;8.414;2023-03-04T00:52:10;40.27;;;23.77;;
12263;SDS011;6194;49.010;8.414;2023-03-04T00:54:36;41.67;;;25.60;;
12263;SDS011;6194;49.010;8.414;2023-03-04T00:57:01;40.80;;;26.07;;
12263;SDS011;6194;49.010;8.414;2023-03-04T00:59:27;42.37;;;26.27;;
12263;SDS011;6194;49.010;8.414;2023-03-04T01:01:52;41.20;;;25.27;;
12263;SDS011;6194;49.010;8.414;2023-03-04T01:04:18;44.27;;;26.17;;
12263;SDS011;6194;49.010;8.414;2023-03-04T01:06:44;45.90;;;28.27;;
12263;SDS011;6194;49.010;8.414;2023-03-04T01:09:09;41.63;;;26.07;;
12263;SDS011;6194;49.010;8.414;2023-03-04T01:11:35;42.80;;;24.23;;
12263;SDS011;6194;49.010;8.414;2023-03-04T01:14:00;47.23;;;28.13;;
12263;SDS011;6194;49.010;8.414;2023-03-04T01:16:26;41.40;;;23.77;;
12263;SDS011;6194;49.010;8.414;2023-03-04T01:18:52;46.80;;;27.27;;
12263;SDS011;6194;49.010;8.414;2023-03-04T01:21:17;49.60;;;26.47;;
12263;SDS011;6194;49.010;8.414;2023-03-04T01:23:43;41.83;;;24.50;;
12263;SDS011;6194;49.010;8.414;2023-03-04T01:26:08;53.03;;;30.13;;
12263;SDS011;6194;49.010;8.414;2023-03-04T01:28:34;43.67;;;26.00;;
12263;SDS011;6194;49.010;8.414;2023-03-04T01:31:00;48.40;;;27.97;;
12263;SDS011;6194;49.010;8.414;2023-03-04T01:33:26;50.93;;;28.13;;
12263;SDS011;6194;49.010;8.414;2023-03-04T01:35:52;49.63;;;27.60;;
12263;SDS011;6194;49.010;8.414;2023-03-04T01:38:18;50.43;;;28.80;;
12263;SDS011;6194;49.010;8.414;2023-03-04T01:40:44;54.47;;;29.97;;
12263;SDS011;6194;49.010;8.414;2023-03-04T01:43:20;52.30;;;30.23;;
12263;SDS011;6194;49.010;8.414;2023-03-04T01:45:48;53.83;;;30.13;;
12263;SDS011;6194;49.010;8.414;2023-03-04T01:48:16;50.27;;;28.87;;
12263;SDS011;6194;49.010;8.414;2023-03-04T01:50:45;50.60;;;29.50;;
12263;SDS011;6194;49.010;8.414;2023-03-04T01:53:14;56.00;;;30.77;;
12263;SDS011;6194;49.010;8.414;2023-03-04T01:55:44;56.40;;;30.43;;
12263;SDS011;6194;49.010;8.414;2023-03-04T01:58:10;50.90;;;28.50;;
12263;SDS011;6194;49.010;8.414;2023-03-04T02:00:36;56.43;;;31.87;;
12263;SDS011;6194;49.010;8.414;2023-03-04T02:03:06;61.60;;;32.50;;
12263;SDS011;6194;49.010;8.414;2023-03-04T02:05:46;57.47;;;30.23;;
12263;SDS011;6194;49.010;8.414;2023-03-04T02:08:13;60.17;;;31.60;;
12263;SDS011;6194;49.010;8.414;2023-03-04T02:10:41;59.30;;;32.33;;
12263;SDS011;6194;49.010;8.414;2023-03-04T02:13:08;65.33;;;31.87;;
12263;SDS011;6194;49.010;8.414;2023-03-04T02:15:34;61.87;;;31.23;;
12263;SDS011;6194;49.010;8.414;2023-03-04T02:18:00;60.87;;;30.40;;
12263;SDS011;6194;49.010;8.414;2023-03-04T02:20:31;66.27;;;33.20;;
12263;SDS011;6194;49.010;8.414;2023-03-04T02:23:22;62.47;;;32.07;;
12263;SDS011;6194;49.010;8.414;2023-03-04T02:26:12;63.73;;;33.23;;
12263;SDS011;6194;49.010;8.414;2023-03-04T02:28:42;63.47;;;33.27;;
12263;SDS011;6194;49.010;8.414;2023-03-04T02:31:22;61.50;;;33.97;;
12263;SDS011;6194;49.010;8.414;2023-03-04T02:33:59;66.20;;;34.13;;
12263;SDS011;6194;49.010;8.414;2023-03-04T02:36:27;63.13;;;31.97;;
12263;SDS011;6194;49.010;8.414;2023-03-04T02:38:54;61.40;;;31.50;;
12263;SDS011;6194;49.010;8.414;2023-03-04T02:41:25;68.80;;;34.20;;
12263;SDS011;6194;49.010;8.414;2023-03-04T02:43:53;65.53;;;32.67;;
12263;SDS011;6194;49.010;8.414;2023-03-04T02:46:20;61.67;;;34.03;;
12263;SDS011;6194;49.010;8.414;2023-03-04T02:48:46;67.23;;;33.17;;
12263;SDS011;6194;49.010;8.414;2023-03-04T02:51:13;62.40;;;31.80;;
12263;SDS011;6194;49.010;8.414;2023-03-04T02:53:39;72.60;;;35.90;;
12263;SDS011;6194;49.010;8.414;2023-03-04T02:56:04;67.03;;;33.40;;
12263;SDS011;6194;49.010;8.414;2023-03-04T02:58:30;73.70;;;34.67;;
12263;SDS011;6194;49.010;8.414;2023-03-04T03:00:56;70.20;;;33.53;;
12263;SDS011;6194;49.010;8.414;2023-03-04T03:03:21;73.87;;;35.37;;
12263;SDS011;6194;49.010;8.414;2023-03-04T03:05:47;68.33;;;33.90;;
12263;SDS011;6194;49.010;8.414;2023-03-04T03:08:13;66.77;;;33.80;;
12263;SDS011;6194;49.010;8.414;2023-03-04T03:10:38;70.43;;;33.73;;
12263;SDS011;6194;49.010;8.414;2023-03-04T03:13:04;76.90;;;34.73;;
12263;SDS011;6194;49.010;8.414;2023-03-04T03:15:29;70.40;;;34.90;;
12263;SDS011;6194;49.010;8.414;2023-03-04T03:17:55;75.97;;;34.63;;
12263;SDS011;6194;49.010;8.414;2023-03-04T03:20:21;70.60;;;35.60;;
12263;SDS011;6194;49.010;8.414;2023-03-04T03:22:47;76.13;;;35.00;;
12263;SDS011;6194;49.010;8.414;2023-03-04T03:25:14;72.70;;;34.97;;
12263;SDS011;6194;49.010;8.414;2023-03-04T03:27:40;72.57;;;34.20;;
12263;SDS011;6194;49.010;8.414;2023-03-04T03:30:07;67.47;;;32.00;;
12263;SDS011;6194;49.010;8.414;2023-03-04T03:32:34;75.57;;;34.00;;
12263;SDS011;6194;49.010;8.414;2023-03-04T03:34:59;78.27;;;34.53;;
12263;SDS011;6194;49.010;8.414;2023-03-04T03:37:25;73.87;;;36.03;;
12263;SDS011;6194;49.010;8.414;2023-03-04T03:39:50;70.17;;;33.50;;
12263;SDS011;6194;49.010;8.414;2023-03-04T03:42:16;72.27;;;33.80;;
12263;SDS011;6194;49.010;8.414;2023-03-04T03:44:41;74.67;;;34.07;;
12263;SDS011;6194;49.010;8.414;2023-03-04T03:47:07;71.80;;;34.00;;
12263;SDS011;6194;49.010;8.414;2023-03-04T03:49:33;66.87;;;33.27;;
12263;SDS011;6194;49.010;8.414;2023-03-04T03:51:58;74.70;;;33.47;;
12263;SDS011;6194;49.010;8.414;2023-03-04T03:54:24;75.93;;;35.03;;
12263;SDS011;6194;49.010;8.414;2023-03-04T03:56:49;76.77;;;35.83;;
12263;SDS011;6194;49.010;8.414;2023-03-04T03:59:15;71.90;;;33.60;;
12263;SDS011;6194;49.010;8.414;2023-03-04T04:01:40;74.63;;;35.23;;
12263;SDS011;6194;49.010;8.414;2023-03-04T04:04:06;72.10;;;34.43;;
12263;SDS011;6194;49.010;8.414;2023-03-04T04:06:32;76.43;;;34.17;;
12263;SDS011;6194;49.010;8.414;2023-03-04T04:08:58;68.73;;;33.10;;
12263;SDS011;6194;49.010;8.414;2023-03-04T04:11:24;79.43;;;34.33;;
12263;SDS011;6194;49.010;8.414;2023-03-04T04:13:49;69.97;;;33.20;;
12263;SDS011;6194;49.010;8.414;2023-03-04T04:16:15;72.57;;;32.83;;
12263;SDS011;6194;49.010;8.414;2023-03-04T04:18:40;70.77;;;33.17;;
12263;SDS011;6194;49.010;8.414;2023-03-04T04:21:06;74.30;;;33.70;;
12263;SDS011;6194;49.010;8.414;2023-03-04T04:23:31;72.97;;;34.60;;
12263;SDS011;6194;49.010;8.414;2023-03-04T04:25:57;76.67;;;33.33;;
12263;SDS011;6194;49.010;8.414;2023-03-04T04:28:23;72.10;;;33.97;;
12263;SDS011;6194;49.010;8.414;2023-03-04T04:30:49;77.47;;;34.53;;
12263;SDS011;6194;49.010;8.414;2023-03-04T04:33:15;75.37;;;33.87;;
12263;SDS011;6194;49.010;8.414;2023-03-04T04:35:41;70.70;;;32.50;;
12263;SDS011;6194;49.010;8.414;2023-03-04T04:38:07;72.87;;;31.93;;
12263;SDS011;6194;49.010;8.414;2023-03-04T04:40:34;69.33;;;32.50;;
12263;SDS011;6194;49.010;8.414;2023-03-04T04:43:00;72.93;;;32.57;;
12263;SDS011;6194;49.010;8.414;2023-03-04T04:45:25;70.40;;;32.23;;
12263;SDS011;6194;49.010;8.414;2023-03-04T04:47:54;74.67;;;33.77;;
12263;SDS011;6194;49.010;8.414;2023-03-04T04:50:22;71.40;;;32.97;;
12263;SDS011;6194;49.010;8.414;2023-03-04T04:52:48;71.00;;;33.20;;
12263;SDS011;6194;49.010;8.414;2023-03-04T04:55:13;68.70;;;31.67;;
12263;SDS011;6194;49.010;8.414;2023-03-04T04:57:39;64.13;;;30.57;;
12263;SDS011;6194;49.010;8.414;2023-03-04T05:00:05;67.60;;;32.47;;
12263;SDS011;6194;49.010;8.414;2023-03-04T05:02:31;59.97;;;29.67;;
12263;SDS011;6194;49.010;8.414;2023-03-04T05:05:01;61.37;;;29.80;;
12263;SDS011;6194;49.010;8.414;2023-03-04T05:07:28;69.10;;;31.47;;
12263;SDS011;6194;49.010;8.414;2023-03-04T05:09:54;69.57;;;30.30;;
12263;SDS011;6194;49.010;8.414;2023-03-04T05:12:19;66.80;;;31.23;;
12263;SDS011;6194;49.010;8.414;2023-03-04T05:14:45;69.13;;;31.47;;
12263;SDS011;6194;49.010;8.414;2023-03-04T05:17:11;69.67;;;31.63;;
12263;SDS011;6194;49.010;8.414;2023-03-04T05:19:36;70.23;;;33.23;;
12263;SDS011;6194;49.010;8.414;2023-03-04T05:22:02;78.47;;;34.47;;
12263;SDS011;6194;49.010;8.414;2023-03-04T05:24:27;73.30;;;33.20;;
12263;SDS011;6194;49.010;8.414;2023-03-04T05:26:53;74.83;;;33.20;;
12263;SDS011;6194;49.010;8.414;2023-03-04T05:29:18;72.97;;;32.10;;
12263;SDS011;6194;49.010;8.414;2023-03-04T05:31:44;72.50;;;32.43;;
12263;SDS011;6194;49.010;8.414;2023-03-04T05:34:09;72.07;;;33.27;;
12263;SDS011;6194;49.010;8.414;2023-03-04T05:36:35;74.63;;;32.67;;
12263;SDS011;6194;49.010;8.414;2023-03-04T05:39:01;78.10;;;34.83;;
12263;SDS011;6194;49.010;8.414;2023-03-04T05:41:26;72.53;;;34.00;;
12263;SDS011;6194;49.010;8.414;2023-03-04T05:43:52;74.77;;;33.53;;
12263;SDS011;6194;49.010;8.414;2023-03-04T05:46:18;70.13;;;32.00;;
12263;SDS011;6194;49.010;8.414;2023-03-04T05:48:49;74.13;;;34.30;;
12263;SDS011;6194;49.010;8.414;2023-03-04T05:51:15;74.30;;;32.70;;
12263;SDS011;6194;49.010;8.414;2023-03-04T05:53:41;74.67;;;32.13;;
12263;SDS011;6194;49.010;8.414;2023-03-04T05:56:07;84.00;;;34.17;;
12263;SDS011;6194;49.010;8.414;2023-03-04T05:58:39;70.00;;;33.33;;
12263;SDS011;6194;49.010;8.414;2023-03-04T06:01:05;63.90;;;32.53;;
12263;SDS011;6194;49.010;8.414;2023-03-04T06:03:30;65.10;;;31.13;;
12263;SDS011;6194;49.010;8.414;2023-03-04T06:05:57;69.17;;;31.20;;
12263;SDS011;6194;49.010;8.414;2023-03-04T06:08:22;59.27;;;30.43;;
12263;SDS011;6194;49.010;8.414;2023-03-04T06:10:50;68.87;;;32.07;;
12263;SDS011;6194;49.010;8.414;2023-03-04T06:13:17;71.40;;;31.60;;
12263;SDS011;6194;49.010;8.414;2023-03-04T06:15:43;79.97;;;31.53;;
12263;SDS011;6194;49.010;8.414;2023-03-04T06:18:09;73.37;;;32.83;;
12263;SDS011;6194;49.010;8.414;2023-03-04T06:20:35;69.57;;;33.40;;
12263;SDS011;6194;49.010;8.414;2023-03-04T06:23:01;70.50;;;31.30;;
12263;SDS011;6194;49.010;8.414;2023-03-04T06:25:27;69.57;;;32.03;;
12263;SDS011;6194;49.010;8.414;2023-03-04T06:27:52;79.57;;;32.43;;
12263;SDS011;6194;49.010;8.414;2023-03-04T06:30:18;76.93;;;32.57;;
12263;SDS011;6194;49.010;8.414;2023-03-04T06:32:44;72.93;;;31.77;;
12263;SDS011;6194;49.010;8.414;2023-03-04T06:35:11;77.53;;;33.03;;
12263;SDS011;6194;49.010;8.414;2023-03-04T06:37:37;84.63;;;35.47;;
12263;SDS011;6194;49.010;8.414;2023-03-04T06:40:03;83.17;;;34.20;;
12263;SDS011;6194;49.010;8.414;2023-03-04T06:42:31;83.57;;;34.20;;
12263;SDS011;6194;49.010;8.414;2023-03-04T06:44:57;81.33;;;33.77;;
12263;SDS011;6194;49.010;8.414;2023-03-04T06:47:23;86.43;;;34.90;;
12263;SDS011;6194;49.010;8.414;2023-03-04T06:49:48;70.27;;;31.83;;
12263;SDS011;6194;49.010;8.414;2023-03-04T06:52:14;73.17;;;33.10;;
12263;SDS011;6194;49.010;8.414;2023-03-04T06:54:40;67.27;;;32.40;;
12263;SDS011;6194;49.010;8.414;2023-03-04T06:57:06;75.07;;;34.63;;
12263;SDS011;6194;49.010;8.414;2023-03-04T06:59:31;68.97;;;33.13;;
12263;SDS011;6194;49.010;8.414;2023-03-04T07:01:58;77.53;;;34.80;;
12263;SDS011;6194;49.010;8.414;2023-03-04T07:04:23;65.67;;;33.23;;
12263;SDS011;6194;49.010;8.414;2023-03-04T07:06:50;72.17;;;33.43;;
12263;SDS011;6194;49.010;8.414;2023-03-04T07:09:16;68.33;;;33.77;;
12263;SDS011;6194;49.010;8.414;2023-03-04T07:11:42;67.70;;;32.77;;
12263;SDS011;6194;49.010;8.414;2023-03-04T07:14:08;61.63;;;32.17;;
12263;SDS011;6194;49.010;8.414;2023-03-04T07:16:35;62.93;;;31.30;;
12263;SDS011;6194;49.010;8.414;2023-03-04T07:19:01;60.07;;;30.53;;
12263;SDS011;6194;49.010;8.414;2023-03-04T07:21:27;59.70;;;31.67;;
12263;SDS011;6194;49.010;8.414;2023-03-04T07:23:53;62.73;;;32.53;;
12263;SDS011;6194;49.010;8.414;2023-03-04T07:26:18;54.83;;;30.63;;
12263;SDS011;6194;49.010;8.414;2023-03-04T07:28:44;55.37;;;31.30;;
12263;SDS011;6194;49.010;8.414;2023-03-04T07:31:10;55.67;;;28.87;;
12263;SDS011;6194;49.010;8.414;2023-03-04T07:33:48;55.03;;;28.57;;
12263;SDS011;6194;49.010;8.414;2023-03-04T07:36:14;53.50;;;29.83;;
12263;SDS011;6194;49.010;8.414;2023-03-04T07:38:44;50.67;;;28.30;;
12263;SDS011;6194;49.010;8.414;2023-03-04T07:41:10;50.43;;;28.77;;
12263;SDS011;6194;49.010;8.414;2023-03-04T07:43:36;53.87;;;29.50;;
12263;SDS011;6194;49.010;8.414;2023-03-04T07:46:02;45.03;;;27.30;;
12263;SDS011;6194;49.010;8.414;2023-03-04T07:48:27;46.03;;;27.30;;
12263;SDS011;6194;49.010;8.414;2023-03-04T07:51:35;44.07;;;26.77;;
12263;SDS011;6194;49.010;8.414;2023-03-04T07:53:44;41.97;;;25.33;;
12263;SDS011;6194;49.010;8.414;2023-03-04T07:56:13;43.50;;;25.37;;
12263;SDS011;6194;49.010;8.414;2023-03-04T07:58:40;37.30;;;23.90;;
12263;SDS011;6194;49.010;8.414;2023-03-04T08:01:10;39.20;;;24.73;;
12263;SDS011;6194;49.010;8.414;2023-03-04T08:03:37;37.80;;;24.33;;
12263;SDS011;6194;49.010;8.414;2023-03-04T08:06:03;38.60;;;23.20;;
12263;SDS011;6194;49.010;8.414;2023-03-04T08:08:30;35.37;;;22.70;;
12263;SDS011;6194;49.010;8.414;2023-03-04T08:10:55;37.93;;;23.40;;
12263;SDS011;6194;49.010;8.414;2023-03-04T08:13:21;37.90;;;23.37;;
12263;SDS011;6194;49.010;8.414;2023-03-04T08:15:47;34.83;;;22.87;;
12263;SDS011;6194;49.010;8.414;2023-03-04T08:18:13;32.77;;;21.70;;
12263;SDS011;6194;49.010;8.414;2023-03-04T08:20:42;32.47;;;22.30;;
12263;SDS011;6194;49.010;8.414;2023-03-04T08:23:08;31.13;;;21.90;;
12263;SDS011;6194;49.010;8.414;2023-03-04T08:25:37;33.70;;;22.37;;
12263;SDS011;6194;49.010;8.414;2023-03-04T08:28:03;29.70;;;19.83;;
12263;SDS011;6194;49.010;8.414;2023-03-04T08:30:29;30.63;;;20.60;;
12263;SDS011;6194;49.010;8.414;2023-03-04T08:32:55;31.53;;;21.40;;
12263;SDS011;6194;49.010;8.414;2023-03-04T08:35:21;30.00;;;20.20;;
12263;SDS011;6194;49.010;8.414;2023-03-04T08:37:46;28.80;;;20.40;;
12263;SDS011;6194;49.010;8.414;2023-03-04T08:40:12;30.17;;;21.63;;
12263;SDS011;6194;49.010;8.414;2023-03-04T08:42:39;30.57;;;21.20;;
12263;SDS011;6194;49.010;8.414;2023-03-04T08:45:05;27.87;;;20.73;;
12263;SDS011;6194;49.010;8.414;2023-03-04T08:47:32;30.27;;;21.47;;
12263;SDS011;6194;49.010;8.414;2023-03-04T08:49:57;28.37;;;19.70;;
12263;SDS011;6194;49.010;8.414;2023-03-04T08:52:23;29.30;;;19.97;;
12263;SDS011;6194;49.010;8.414;2023-03-04T08:54:49;27.70;;;20.87;;
12263;SDS011;6194;49.010;8.414;2023-03-04T08:57:15;27.37;;;20.20;;
12263;SDS011;6194;49.010;8.414;2023-03-04T08:59:41;26.37;;;19.30;;
12263;SDS011;6194;49.010;8.414;2023-03-04T09:02:06;28.90;;;20.97;;
12263;SDS011;6194;49.010;8.414;2023-03-04T09:04:33;31.67;;;23.53;;
12263;SDS011;6194;49.010;8.414;2023-03-04T09:07:00;32.17;;;21.83;;
12263;SDS011;6194;49.010;8.414;2023-03-04T09:09:26;27.73;;;21.47;;
12263;SDS011;6194;49.010;8.414;2023-03-04T09:11:51;28.47;;;20.90;;
12263;SDS011;6194;49.010;8.414;2023-03-04T09:14:17;32.17;;;23.10;;
12263;SDS011;6194;49.010;8.414;2023-03-04T09:16:43;30.53;;;23.53;;
12263;SDS011;6194;49.010;8.414;2023-03-04T09:19:09;30.77;;;23.07;;
12263;SDS011;6194;49.010;8.414;2023-03-04T09:21:34;28.57;;;21.87;;
12263;SDS011;6194;49.010;8.414;2023-03-04T09:24:00;28.53;;;22.57;;
12263;SDS011;6194;49.010;8.414;2023-03-04T09:26:26;30.23;;;23.43;;
12263;SDS011;6194;49.010;8.414;2023-03-04T09:28:55;33.33;;;23.17;;
12263;SDS011;6194;49.010;8.414;2023-03-04T09:31:22;31.03;;;23.30;;
12263;SDS011;6194;49.010;8.414;2023-03-04T09:33:48;32.23;;;24.07;;
12263;SDS011;6194;49.010;8.414;2023-03-04T09:36:14;30.93;;;24.93;;
12263;SDS011;6194;49.010;8.414;2023-03-04T09:38:40;31.57;;;24.20;;
12263;SDS011;6194;49.010;8.414;2023-03-04T09:41:08;31.00;;;24.57;;
12263;SDS011;6194;49.010;8.414;2023-03-04T09:43:38;32.53;;;24.97;;
12263;SDS011;6194;49.010;8.414;2023-03-04T09:46:13;34.70;;;26.97;;
12263;SDS011;6194;49.010;8.414;2023-03-04T09:48:43;33.60;;;26.30;;
12263;SDS011;6194;49.010;8.414;2023-03-04T09:51:22;34.70;;;25.83;;
12263;SDS011;6194;49.010;8.414;2023-03-04T09:54:04;36.07;;;27.17;;
12263;SDS011;6194;49.010;8.414;2023-03-04T09:56:39;37.23;;;27.70;;
12263;SDS011;6194;49.010;8.414;2023-03-04T09:59:10;35.63;;;26.97;;
12263;SDS011;6194;49.010;8.414;2023-03-04T10:04:25;36.87;;;29.40;;
12263;SDS011;6194;49.010;8.414;2023-03-04T10:07:04;39.70;;;28.27;;
12263;SDS011;6194;49.010;8.414;2023-03-04T10:12:12;38.80;;;29.37;;
12263;SDS011;6194;49.010;8.414;2023-03-04T10:19:53;34.00;;;25.00;;
12263;SDS011;6194;49.010;8.414;2023-03-04T10:22:36;35.60;;;25.97;;
12263;SDS011;6194;49.010;8.414;2023-03-04T10:25:31;35.20;;;25.90;;
12263;SDS011;6194;49.010;8.414;2023-03-04T10:27:58;35.80;;;24.70;;
12263;SDS011;6194;49.010;8.414;2023-03-04T10:30:42;32.17;;;23.83;;
12263;SDS011;6194;49.010;8.414;2023-03-04T10:33:37;34.43;;;24.57;;
12263;SDS011;6194;49.010;8.414;2023-03-04T10:38:57;32.53;;;23.67;;
12263;SDS011;6194;49.010;8.414;2023-03-04T10:41:30;31.47;;;22.60;;
12263;SDS011;6194;49.010;8.414;2023-03-04T10:46:46;34.23;;;24.40;;
12263;SDS011;6194;49.010;8.414;2023-03-04T10:49:14;32.37;;;24.20;;
12263;SDS011;6194;49.010;8.414;2023-03-04T10:51:45;33.47;;;22.77;;
12263;SDS011;6194;49.010;8.414;2023-03-04T10:54:41;36.87;;;23.63;;
12263;SDS011;6194;49.010;8.414;2023-03-04T10:59:58;34.23;;;24.43;;
12263;SDS011;6194;49.010;8.414;2023-03-04T11:02:44;35.10;;;23.40;;
12263;SDS011;6194;49.010;8.414;2023-03-04T11:07:40;36.37;;;24.63;;
12263;SDS011;6194;49.010;8.414;2023-03-04T11:10:12;35.17;;;27.63;;
12263;SDS011;6194;49.010;8.414;2023-03-04T11:12:47;35.03;;;25.10;;
12263;SDS011;6194;49.010;8.414;2023-03-04T11:15:24;32.93;;;23.07;;
12263;SDS011;6194;49.010;8.414;2023-03-04T11:18:05;34.53;;;23.90;;
12263;SDS011;6194;49.010;8.414;2023-03-04T11:20:38;35.47;;;23.90;;
12263;SDS011;6194;49.010;8.414;2023-03-04T11:23:10;30.93;;;22.70;;
12263;SDS011;6194;49.010;8.414;2023-03-04T11:25:49;32.67;;;21.80;;
12263;SDS011;6194;49.010;8.414;2023-03-04T11:28:24;31.77;;;21.43;;
12263;SDS011;6194;49.010;8.414;2023-03-04T11:31:00;32.00;;;23.13;;
12263;SDS011;6194;49.010;8.414;2023-03-04T11:38:52;31.60;;;21.73;;
12263;SDS011;6194;49.010;8.414;2023-03-04T11:43:56;33.90;;;22.63;;
12263;SDS011;6194;49.010;8.414;2023-03-04T12:00:15;35.67;;;21.97;;
12263;SDS011;6194;49.010;8.414;2023-03-04T12:05:20;29.30;;;22.10;;
12263;SDS011;6194;49.010;8.414;2023-03-04T12:11:05;33.20;;;21.53;;
12263;SDS011;6194;49.010;8.414;2023-03-04T12:16:43;32.53;;;21.97;;
12263;SDS011;6194;49.010;8.414;2023-03-04T12:27:46;31.23;;;21.47;;
12263;SDS011;6194;49.010;8.414;2023-03-04T12:32:54;31.97;;;22.37;;
12263;SDS011;6194;49.010;8.414;2023-03-04T12:38:23;31.90;;;22.03;;
12263;SDS011;6194;49.010;8.414;2023-03-04T12:51:35;29.27;;;20.87;;
12263;SDS011;6194;49.010;8.414;2023-03-04T12:54:30;33.27;;;21.80;;
12263;SDS011;6194;49.010;8.414;2023-03-04T12:57:02;30.90;;;19.73;;
12263;SDS011;6194;49.010;8.414;2023-03-04T12:59:35;29.77;;;20.27;;
12263;SDS011;6194;49.010;8.414;2023-03-04T13:10:25;29.77;;;19.60;;
12263;SDS011;6194;49.010;8.414;2023-03-04T13:12:57;30.93;;;19.30;;
12263;SDS011;6194;49.010;8.414;2023-03-04T13:28:24;26.33;;;17.70;;
12263;SDS011;6194;49.010;8.414;2023-03-04T13:49:04;26.97;;;17.20;;
12263;SDS011;6194;49.010;8.414;2023-03-04T13:51:38;22.37;;;16.10;;
12263;SDS011;6194;49.010;8.414;2023-03-04T14:02:13;28.87;;;17.67;;
12263;SDS011;6194;49.010;8.414;2023-03-04T14:04:41;27.43;;;17.93;;
12263;SDS011;6194;49.010;8.414;2023-03-04T14:10:00;25.23;;;17.27;;
12263;SDS011;6194;49.010;8.414;2023-03-04T14:12:35;24.40;;;16.33;;
12263;SDS011;6194;49.010;8.414;2023-03-04T14:15:14;25.77;;;16.33;;
12263;SDS011;6194;49.010;8.414;2023-03-04T14:17:51;24.90;;;16.40;;
12263;SDS011;6194;49.010;8.414;2023-03-04T14:20:28;25.40;;;16.60;;
12263;SDS011;6194;49.010;8.414;2023-03-04T14:22:56;22.83;;;15.77;;
12263;SDS011;6194;49.010;8.414;2023-03-04T14:25:24;23.60;;;15.47;;
12263;SDS011;6194;49.010;8.414;2023-03-04T14:30:53;25.43;;;15.40;;
12263;SDS011;6194;49.010;8.414;2023-03-04T14:33:24;24.97;;;14.30;;
12263;SDS011;6194;49.010;8.414;2023-03-04T14:35:55;24.17;;;13.83;;
12263;SDS011;6194;49.010;8.414;2023-03-04T14:38:24;26.00;;;15.50;;
12263;SDS011;6194;49.010;8.414;2023-03-04T14:41:00;22.23;;;13.40;;
12263;SDS011;6194;49.010;8.414;2023-03-04T14:43:30;24.07;;;13.70;;
12263;SDS011;6194;49.010;8.414;2023-03-04T14:46:04;20.40;;;13.50;;
12263;SDS011;6194;49.010;8.414;2023-03-04T14:48:36;25.53;;;13.77;;
12263;SDS011;6194;49.010;8.414;2023-03-04T14:51:02;25.73;;;13.93;;
12263;SDS011;6194;49.010;8.414;2023-03-04T14:53:28;19.90;;;12.63;;
12263;SDS011;6194;49.010;8.414;2023-03-04T14:55:59;23.33;;;12.40;;
12263;SDS011;6194;49.010;8.414;2023-03-04T14:58:31;24.40;;;13.90;;
12263;SDS011;6194;49.010;8.414;2023-03-04T15:03:38;22.37;;;14.40;;
12263;SDS011;6194;49.010;8.414;2023-03-04T15:06:15;25.07;;;15.97;;
12263;SDS011;6194;49.010;8.414;2023-03-04T15:08:58;22.33;;;14.70;;
12263;SDS011;6194;49.010;8.414;2023-03-04T15:11:32;20.33;;;12.67;;
12263;SDS011;6194;49.010;8.414;2023-03-04T15:22:33;22.73;;;12.57;;
12263;SDS011;6194;49.010;8.414;2023-03-04T15:25:00;17.60;;;12.07;;
12263;SDS011;6194;49.010;8.414;2023-03-04T15:27:27;21.73;;;12.60;;
12263;SDS011;6194;49.010;8.414;2023-03-04T15:29:54;21.23;;;12.47;;
12263;SDS011;6194;49.010;8.414;2023-03-04T15:32:26;29.70;;;16.23;;
12263;SDS011;6194;49.010;8.414;2023-03-04T15:34:53;25.13;;;15.53;;
12263;SDS011;6194;49.010;8.414;2023-03-04T15:37:23;24.67;;;15.80;;
12263;SDS011;6194;49.010;8.414;2023-03-04T15:39:51;23.37;;;14.70;;
12263;SDS011;6194;49.010;8.414;2023-03-04T15:42:19;23.90;;;14.63;;
12263;SDS011;6194;49.010;8.414;2023-03-04T15:44:45;21.17;;;13.50;;
12263;SDS011;6194;49.010;8.414;2023-03-04T15:47:11;24.43;;;14.23;;
12263;SDS011;6194;49.010;8.414;2023-03-04T15:49:42;18.90;;;12.43;;
12263;SDS011;6194;49.010;8.414;2023-03-04T15:52:14;22.30;;;13.67;;
12263;SDS011;6194;49.010;8.414;2023-03-04T15:54:43;22.10;;;13.80;;
12263;SDS011;6194;49.010;8.414;2023-03-04T15:57:27;22.30;;;14.00;;
12263;SDS011;6194;49.010;8.414;2023-03-04T15:59:53;22.63;;;12.93;;
12263;SDS011;6194;49.010;8.414;2023-03-04T16:02:19;17.43;;;12.33;;
12263;SDS011;6194;49.010;8.414;2023-03-04T16:04:47;21.93;;;12.50;;
12263;SDS011;6194;49.010;8.414;2023-03-04T16:07:15;19.80;;;12.33;;
12263;SDS011;6194;49.010;8.414;2023-03-04T16:09:42;22.13;;;13.10;;
12263;SDS011;6194;49.010;8.414;2023-03-04T16:12:09;20.40;;;12.37;;
12263;SDS011;6194;49.010;8.414;2023-03-04T16:14:36;23.20;;;13.33;;
12263;SDS011;6194;49.010;8.414;2023-03-04T16:17:01;21.53;;;11.83;;
12263;SDS011;6194;49.010;8.414;2023-03-04T16:19:27;22.63;;;11.87;;
12263;SDS011;6194;49.010;8.414;2023-03-04T16:21:52;23.77;;;12.20;;
12263;SDS011;6194;49.010;8.414;2023-03-04T16:24:18;22.13;;;11.80;;
12263;SDS011;6194;49.010;8.414;2023-03-04T16:26:45;19.20;;;12.33;;
12263;SDS011;6194;49.010;8.414;2023-03-04T16:29:12;23.23;;;12.07;;
12263;SDS011;6194;49.010;8.414;2023-03-04T16:31:37;18.90;;;11.77;;
12263;SDS011;6194;49.010;8.414;2023-03-04T16:34:03;20.80;;;12.37;;
12263;SDS011;6194;49.010;8.414;2023-03-04T16:36:28;21.23;;;13.30;;
12263;SDS011;6194;49.010;8.414;2023-03-04T16:38:54;19.77;;;12.83;;
12263;SDS011;6194;49.010;8.414;2023-03-04T16:41:24;23.67;;;13.70;;
12263;SDS011;6194;49.010;8.414;2023-03-04T16:43:51;26.93;;;13.57;;
12263;SDS011;6194;49.010;8.414;2023-03-04T16:46:19;20.97;;;12.93;;
12263;SDS011;6194;49.010;8.414;2023-03-04T16:48:45;24.13;;;13.33;;
12263;SDS011;6194;49.010;8.414;2023-03-04T16:51:12;21.97;;;13.43;;
12263;SDS011;6194;49.010;8.414;2023-03-04T16:53:46;22.03;;;13.93;;
12263;SDS011;6194;49.010;8.414;2023-03-04T16:56:14;24.47;;;13.67;;
12263;SDS011;6194;49.010;8.414;2023-03-04T16:58:42;23.10;;;13.83;;
12263;SDS011;6194;49.010;8.414;2023-03-04T17:01:12;21.80;;;13.67;;